createdAt,value
2023-02-27T00:03:33.984Z,100.00
2023-02-27T00:06:21.204Z,100.00
2023-02-27T00:09:08.540Z,100.00
2023-02-27T00:11:56.271Z,100.00
2023-02-27T00:14:43.326Z,100.00
2023-02-27T00:17:30.693Z,100.00
2023-02-27T00:20:19.327Z,100.00
2023-02-27T00:23:08.623Z,100.00
2023-02-27T00:25:55.803Z,100.00
2023-02-27T00:28:42.916Z,100.00
2023-02-27T00:31:30.583Z,100.00
2023-02-27T00:34:17.877Z,100.00
2023-02-27T00:37:04.976Z,100.00
2023-02-27T00:39:52.158Z,100.00
2023-02-27T00:42:39.282Z,100.00
2023-02-27T00:45:26.343Z,100.00
2023-02-27T00:48:13.419Z,100.00
2023-02-27T00:51:00.517Z,100.00
2023-02-27T00:53:47.595Z,100.00
2023-02-27T00:56:35.010Z,100.00
2023-02-27T00:59:22.091Z,100.00
2023-02-27T01:02:09.231Z,100.00
2023-02-27T01:04:56.301Z,100.00
2023-02-27T01:07:43.434Z,100.00
2023-02-27T01:10:30.928Z,100.00
2023-02-27T01:13:18.048Z,100.00
2023-02-27T01:16:05.517Z,100.00
2023-02-27T01:18:52.906Z,100.00
2023-02-27T01:21:42.195Z,100.00
2023-02-27T01:24:29.295Z,100.00
2023-02-27T01:27:16.351Z,100.00
2023-02-27T01:30:04.628Z,100.00
2023-02-27T01:32:51.688Z,100.00
2023-02-27T01:35:39.768Z,100.00
2023-02-27T01:38:26.951Z,100.00
2023-02-27T01:41:14.330Z,100.00
2023-02-27T01:44:02.575Z,100.00
2023-02-27T01:46:49.621Z,100.00
2023-02-27T01:49:36.792Z,100.00
2023-02-27T01:52:23.955Z,100.00
2023-02-27T01:55:13.512Z,100.00
2023-02-27T01:58:01.079Z,100.00
2023-02-27T02:00:49.175Z,100.00
2023-02-27T02:03:42.920Z,100.00
2023-02-27T02:06:31.765Z,100.00
2023-02-27T02:09:20.374Z,100.00
2023-02-27T02:12:08.488Z,100.00
2023-02-27T02:14:55.654Z,100.00
2023-02-27T02:17:57.739Z,100.00
2023-02-27T02:20:56.367Z,100.00
2023-02-27T02:24:16.017Z,100.00
2023-02-27T02:27:21.386Z,100.00
2023-02-27T02:30:33.366Z,100.00
2023-02-27T02:33:52.942Z,100.00
2023-02-27T02:36:51.936Z,100.00
2023-02-27T02:39:38.986Z,100.00
2023-02-27T02:42:43.700Z,100.00
2023-02-27T02:45:52.355Z,100.00
2023-02-27T02:48:53.040Z,100.00
2023-02-27T02:51:56.169Z,100.00
2023-02-27T02:55:01.712Z,100.00
2023-02-27T02:57:56.271Z,100.00
2023-02-27T03:00:49.588Z,100.00
2023-02-27T03:03:45.613Z,100.00
2023-02-27T03:06:37.861Z,100.00
2023-02-27T03:09:32.564Z,100.00
2023-02-27T03:12:23.418Z,100.00
2023-02-27T03:15:21.065Z,100.00
2023-02-27T03:18:22.591Z,100.00
2023-02-27T03:21:18.765Z,100.00
2023-02-27T03:24:10.019Z,100.00
2023-02-27T03:27:03.162Z,100.00
2023-02-27T03:29:58.182Z,100.00
2023-02-27T03:33:06.556Z,100.00
2023-02-27T03:36:04.731Z,100.00
2023-02-27T03:39:00.438Z,100.00
2023-02-27T03:41:54.434Z,100.00
2023-02-27T03:44:54.902Z,100.00
2023-02-27T03:47:42.276Z,100.00
2023-02-27T03:50:30.719Z,100.00
2023-02-27T03:54:09.936Z,100.00
2023-02-27T03:57:05.570Z,100.00
2023-02-27T03:59:53.501Z,100.00
2023-02-27T04:02:41.944Z,100.00
2023-02-27T04:05:29.642Z,100.00
2023-02-27T04:08:25.920Z,100.00
2023-02-27T04:11:33.294Z,100.00
2023-02-27T04:14:49.558Z,100.00
2023-02-27T04:18:04.358Z,100.00
2023-02-27T04:20:58.632Z,100.00
2023-02-27T04:24:21.540Z,100.00
2023-02-27T04:27:20.945Z,100.00
2023-02-27T04:30:32.621Z,100.00
2023-02-27T04:33:28.837Z,100.00
2023-02-27T04:36:27.058Z,100.00
2023-02-27T04:39:28.900Z,100.00
2023-02-27T04:42:19.522Z,100.00
2023-02-27T04:45:12.725Z,100.00
2023-02-27T04:48:07.414Z,100.00
2023-02-27T04:50:59.889Z,100.00
2023-02-27T04:53:52.932Z,100.00
2023-02-27T04:56:57.240Z,100.00
2023-02-27T04:59:49.202Z,100.00
2023-02-27T05:02:41.192Z,100.00
2023-02-27T05:05:32.420Z,100.00
2023-02-27T05:08:56.019Z,100.00
2023-02-27T05:12:04.168Z,100.00
2023-02-27T05:15:05.737Z,100.00
2023-02-27T05:17:59.354Z,100.00
2023-02-27T05:21:15.330Z,100.00
2023-02-27T05:24:17.288Z,100.00
2023-02-27T05:27:22.543Z,100.00
2023-02-27T05:30:27.230Z,100.00
2023-02-27T05:33:25.137Z,100.00
2023-02-27T05:36:19.557Z,100.00
2023-02-27T05:39:10.524Z,100.00
2023-02-27T05:42:14.637Z,100.00
2023-02-27T05:45:20.281Z,100.00
2023-02-27T05:48:30.382Z,100.00
2023-02-27T05:51:21.148Z,100.00
2023-02-27T05:54:30.341Z,100.00
2023-02-27T05:57:25.284Z,100.00
2023-02-27T06:00:37.765Z,100.00
2023-02-27T06:03:27.344Z,100.00
2023-02-27T06:06:20.290Z,100.00
2023-02-27T06:09:51.842Z,100.00
2023-02-27T06:12:53.869Z,100.00
2023-02-27T06:15:44.122Z,100.00
2023-02-27T06:19:58.318Z,100.00
2023-02-27T06:22:52.771Z,100.00
2023-02-27T06:27:11.066Z,100.00
2023-02-27T06:53:43.073Z,100.00
2023-02-27T06:57:23.945Z,100.00
2023-02-27T07:00:21.145Z,100.00
2023-02-27T07:03:12.487Z,100.00
2023-02-27T07:28:39.411Z,100.00
2023-02-27T07:40:28.339Z,96.05
2023-02-27T07:43:18.723Z,97.26
2023-02-27T07:46:08.341Z,96.40
2023-02-27T07:49:03.189Z,92.60
2023-02-27T07:51:35.724Z,90.32
2023-02-27T07:54:22.658Z,89.30
2023-02-27T07:56:59.821Z,90.39
2023-02-27T08:10:06.216Z,86.41
2023-02-27T08:12:53.470Z,84.92
2023-02-27T08:15:40.575Z,80.63
2023-02-27T08:18:27.665Z,76.08
2023-02-27T08:21:14.933Z,78.61
2023-02-27T08:24:02.265Z,77.09
2023-02-27T08:26:49.379Z,76.99
2023-02-27T08:29:36.535Z,78.23
2023-02-27T08:32:23.752Z,81.09
2023-02-27T08:35:10.986Z,82.68
2023-02-27T08:37:58.079Z,76.57
2023-02-27T08:40:45.497Z,77.91
2023-02-27T08:43:33.009Z,77.40
2023-02-27T08:46:20.486Z,75.52
2023-02-27T08:49:07.655Z,75.57
2023-02-27T08:51:54.766Z,75.37
2023-02-27T08:54:41.941Z,75.14
2023-02-27T08:57:29.019Z,68.67
2023-02-27T09:00:16.780Z,67.54
2023-02-27T09:03:04.219Z,65.21
2023-02-27T09:05:51.351Z,65.03
2023-02-27T09:08:38.787Z,66.32
2023-02-27T09:11:26.924Z,69.00
2023-02-27T09:14:14.162Z,68.38
2023-02-27T09:17:01.336Z,69.22
2023-02-27T09:19:48.963Z,64.37
2023-02-27T09:22:36.210Z,64.28
2023-02-27T09:25:24.293Z,64.29
2023-02-27T09:28:11.457Z,64.29
2023-02-27T09:31:03.283Z,62.57
2023-02-27T09:33:50.333Z,59.78
2023-02-27T09:36:37.419Z,59.32
2023-02-27T09:39:24.533Z,59.01
2023-02-27T09:42:28.770Z,59.44
2023-02-27T09:45:25.087Z,60.63
2023-02-27T09:48:26.795Z,60.09
2023-02-27T09:51:16.740Z,61.06
2023-02-27T09:54:05.118Z,60.99
2023-02-27T09:57:01.107Z,58.85
2023-02-27T09:59:56.970Z,60.37
2023-02-27T10:03:01.836Z,61.20
2023-02-27T10:06:06.213Z,59.74
2023-02-27T10:09:15.764Z,60.67
2023-02-27T10:12:21.423Z,58.58
2023-02-27T10:15:47.358Z,57.50
2023-02-27T10:19:00.313Z,54.84
2023-02-27T10:21:51.862Z,55.08
2023-02-27T10:24:48.202Z,54.79
2023-02-27T10:27:35.317Z,51.27
2023-02-27T10:30:29.840Z,52.62
2023-02-27T10:33:38.668Z,53.96
2023-02-27T10:36:33.588Z,54.34
2023-02-27T10:39:23.078Z,54.83
2023-02-27T10:42:12.572Z,51.63
2023-02-27T10:44:59.676Z,50.83
2023-02-27T10:47:46.853Z,52.46
2023-02-27T10:50:37.103Z,52.82
2023-02-27T10:53:25.484Z,52.61
2023-02-27T10:56:26.951Z,53.30
2023-02-27T10:59:25.518Z,53.21
2023-02-27T11:02:39.200Z,53.72
2023-02-27T11:05:32.420Z,50.57
2023-02-27T11:08:25.470Z,53.01
2023-02-27T11:11:12.629Z,49.66
2023-02-27T11:14:25.163Z,48.05
2023-02-27T11:17:28.961Z,50.30
2023-02-27T11:20:40.019Z,49.58
2023-02-27T11:23:27.102Z,50.13
2023-02-27T11:26:19.984Z,49.26
2023-02-27T11:29:19.146Z,49.07
2023-02-27T11:32:14.824Z,49.83
2023-02-27T11:35:02.276Z,49.70
2023-02-27T11:37:51.974Z,49.81
2023-02-27T11:40:50.401Z,49.07
2023-02-27T11:43:51.231Z,48.59
2023-02-27T11:46:47.022Z,48.41
2023-02-27T11:49:45.229Z,47.46
2023-02-27T11:52:44.853Z,47.71
2023-02-27T11:55:32.529Z,49.42
2023-02-27T11:58:23.102Z,47.58
2023-02-27T12:01:21.048Z,48.35
2023-02-27T12:04:28.226Z,46.63
2023-02-27T12:07:17.846Z,47.61
2023-02-27T12:10:07.824Z,48.19
2023-02-27T12:12:57.877Z,46.97
2023-02-27T12:15:48.029Z,48.50
2023-02-27T12:18:40.426Z,47.70
2023-02-27T12:21:39.323Z,48.60
2023-02-27T12:24:33.554Z,48.64
2023-02-27T12:27:51.010Z,50.60
2023-02-27T12:31:19.713Z,49.39
2023-02-27T12:34:27.354Z,49.01
2023-02-27T12:37:24.274Z,50.29
2023-02-27T12:40:18.347Z,49.61
2023-02-27T12:43:30.240Z,51.35
2023-02-27T12:46:29.526Z,49.83
2023-02-27T12:49:37.118Z,49.71
2023-02-27T12:52:39.436Z,48.91
2023-02-27T12:55:29.969Z,50.20
2023-02-27T12:58:40.404Z,50.70
2023-02-27T13:01:56.409Z,50.83
2023-02-27T13:04:52.099Z,50.84
2023-02-27T13:07:57.806Z,51.39
2023-02-27T13:11:17.458Z,50.29
2023-02-27T13:14:26.146Z,49.76
2023-02-27T13:17:34.574Z,50.41
2023-02-27T13:20:21.604Z,50.48
2023-02-27T13:23:22.281Z,50.33
2023-02-27T13:26:19.524Z,50.55
2023-02-27T13:29:08.119Z,50.45
2023-02-27T13:32:44.138Z,50.73
2023-02-27T13:36:07.965Z,50.50
2023-02-27T13:38:58.263Z,50.29
2023-02-27T13:41:45.270Z,50.29
2023-02-27T13:44:41.330Z,50.68
2023-02-27T13:47:31.281Z,51.36
2023-02-27T13:50:18.338Z,51.93
2023-02-27T13:53:11.102Z,50.82
2023-02-27T13:56:22.037Z,52.50
2023-02-27T13:59:17.829Z,53.05
2023-02-27T14:02:10.947Z,52.73
2023-02-27T14:05:03.217Z,54.45
2023-02-27T14:08:05.792Z,54.02
2023-02-27T14:11:18.869Z,52.22
2023-02-27T14:14:08.631Z,53.59
2023-02-27T14:16:57.892Z,52.82
2023-02-27T14:19:49.464Z,53.77
2023-02-27T14:22:44.269Z,53.74
2023-02-27T14:25:39.499Z,53.49
2023-02-27T14:28:36.225Z,54.82
2023-02-27T14:31:32.832Z,53.15
2023-02-27T14:34:22.392Z,54.55
2023-02-27T14:37:23.647Z,53.82
2023-02-27T14:40:29.942Z,55.07
2023-02-27T14:43:35.762Z,53.40
2023-02-27T14:46:31.460Z,54.24
2023-02-27T14:49:26.149Z,55.25
2023-02-27T14:52:22.842Z,55.23
2023-02-27T14:55:18.333Z,54.87
2023-02-27T14:58:19.353Z,54.14
2023-02-27T15:01:10.013Z,53.61
2023-02-27T15:03:58.881Z,55.24
2023-02-27T15:06:54.845Z,55.37
2023-02-27T15:09:44.961Z,54.89
2023-02-27T15:12:37.521Z,55.33
2023-02-27T15:15:27.936Z,55.11
2023-02-27T15:18:15.446Z,53.91
2023-02-27T15:21:02.674Z,56.35
2023-02-27T15:24:22.563Z,55.80
2023-02-27T15:27:15.054Z,55.70
2023-02-27T15:30:04.322Z,56.04
2023-02-27T15:32:52.997Z,54.84
2023-02-27T15:35:44.488Z,55.40
2023-02-27T15:38:38.173Z,55.78
2023-02-27T15:41:25.619Z,55.47
2023-02-27T15:44:14.843Z,56.14
2023-02-27T15:47:02.615Z,58.23
2023-02-27T15:49:53.878Z,56.98
2023-02-27T15:52:44.398Z,56.70
2023-02-27T15:55:36.090Z,58.12
2023-02-27T15:58:26.543Z,58.10
2023-02-27T16:01:26.886Z,57.22
2023-02-27T16:04:26.118Z,57.32
2023-02-27T16:07:17.756Z,58.14
2023-02-27T16:10:15.627Z,61.21
2023-02-27T16:13:25.693Z,60.85
2023-02-27T16:16:22.171Z,58.76
2023-02-27T16:19:27.027Z,60.13
2023-02-27T16:22:21.673Z,63.95
2023-02-27T16:25:11.189Z,60.84
2023-02-27T16:27:58.396Z,60.64
2023-02-27T16:30:46.068Z,62.27
2023-02-27T16:33:37.019Z,59.87
2023-02-27T16:36:27.631Z,60.68
2023-02-27T16:39:15.374Z,67.52
2023-02-27T16:42:11.046Z,67.18
2023-02-27T16:45:00.824Z,67.24
2023-02-27T16:47:57.038Z,65.42
2023-02-27T16:50:48.537Z,71.10
2023-02-27T16:53:44.255Z,76.12
2023-02-27T16:56:38.181Z,73.68
2023-02-27T16:59:27.348Z,66.31
2023-02-27T17:02:16.313Z,73.72
2023-02-27T17:05:07.325Z,76.76
2023-02-27T17:07:55.014Z,67.90
2023-02-27T17:10:42.981Z,66.43
2023-02-27T17:13:32.860Z,68.21
2023-02-27T17:16:23.275Z,64.40
2023-02-27T17:19:12.027Z,66.67
2023-02-27T17:21:59.611Z,62.68
2023-02-27T17:24:46.716Z,62.54
2023-02-27T17:27:34.577Z,63.21
2023-02-27T17:30:24.546Z,61.95
2023-02-27T17:33:11.750Z,62.98
2023-02-27T17:36:08.806Z,63.23
2023-02-27T17:39:03.428Z,62.03
2023-02-27T17:41:53.107Z,62.29
2023-02-27T17:44:44.643Z,65.02
2023-02-27T17:47:34.038Z,65.17
2023-02-27T17:50:22.160Z,69.26
2023-02-27T17:53:11.916Z,67.84
2023-02-27T17:55:59.580Z,65.57
2023-02-27T17:58:50.575Z,66.37
2023-02-27T18:01:38.515Z,66.99
2023-02-27T18:04:28.144Z,67.70
2023-02-27T18:07:16.161Z,76.64
2023-02-27T18:10:05.956Z,72.66
2023-02-27T18:12:53.922Z,76.78
2023-02-27T18:15:42.831Z,79.64
2023-02-27T18:18:38.466Z,70.52
2023-02-27T18:21:27.776Z,83.74
2023-02-27T18:24:18.560Z,88.27
2023-02-27T18:27:07.014Z,85.95
2023-02-27T18:29:55.496Z,81.64
2023-02-27T18:32:44.204Z,81.87
2023-02-27T18:35:31.522Z,84.52
2023-02-27T18:38:19.377Z,86.73
2023-02-27T18:41:09.838Z,85.45
2023-02-27T18:43:59.382Z,91.45
2023-02-27T18:46:46.985Z,85.08
2023-02-27T18:49:34.765Z,84.72
2023-02-27T18:52:26.208Z,84.07
2023-02-27T18:55:16.392Z,82.28
2023-02-27T18:58:06.052Z,85.55
2023-02-27T19:00:59.523Z,82.85
2023-02-27T19:03:47.893Z,85.89
2023-02-27T19:06:42.675Z,84.21
2023-02-27T19:09:33.280Z,81.61
2023-02-27T19:12:22.960Z,83.78
2023-02-27T19:15:12.664Z,82.84
2023-02-27T19:18:00.405Z,84.84
2023-02-27T19:20:48.716Z,85.67
2023-02-27T19:23:37.318Z,85.68
2023-02-27T19:26:26.289Z,87.37
2023-02-27T19:29:14.863Z,79.61
2023-02-27T19:32:08.977Z,87.00
2023-02-27T19:34:56.985Z,90.45
2023-02-27T19:37:48.628Z,87.75
2023-02-27T19:40:37.170Z,86.71
2023-02-27T19:43:25.521Z,80.93
2023-02-27T19:46:18.172Z,75.53
2023-02-27T19:49:11.228Z,76.12
2023-02-27T19:51:59.499Z,76.76
2023-02-27T19:54:47.784Z,76.94
2023-02-27T19:57:37.484Z,77.59
2023-02-27T20:00:25.566Z,78.86
2023-02-27T20:03:13.614Z,81.41
2023-02-27T20:06:03.535Z,82.25
2023-02-27T20:08:53.251Z,82.62
2023-02-27T20:11:43.067Z,83.65
2023-02-27T20:14:33.005Z,82.87
2023-02-27T20:17:23.851Z,85.82
2023-02-27T20:20:13.448Z,85.11
2023-02-27T20:23:03.553Z,83.79
2023-02-27T20:25:54.529Z,84.46
2023-02-27T20:28:44.917Z,86.14
2023-02-27T20:31:36.883Z,86.56
2023-02-27T20:34:27.433Z,86.43
2023-02-27T20:37:15.158Z,86.76
2023-02-27T20:40:06.011Z,86.71
2023-02-27T20:42:54.246Z,86.64
2023-02-27T20:45:42.363Z,86.73
2023-02-27T20:48:29.911Z,85.21
2023-02-27T20:51:26.722Z,86.85
2023-02-27T20:54:21.977Z,84.65
2023-02-27T20:57:12.348Z,85.77
2023-02-27T21:00:01.297Z,85.59
2023-02-27T21:02:48.783Z,86.92
2023-02-27T21:05:39.107Z,86.81
2023-02-27T21:08:27.725Z,84.92
2023-02-27T21:11:19.233Z,84.09
2023-02-27T21:14:09.428Z,80.96
2023-02-27T21:16:57.250Z,85.05
2023-02-27T21:19:44.688Z,82.40
2023-02-27T21:22:35.717Z,83.51
2023-02-27T21:25:26.493Z,85.28
2023-02-27T21:28:14.993Z,84.34
2023-02-27T21:31:06.794Z,86.61
2023-02-27T21:33:54.962Z,86.39
2023-02-27T21:36:47.414Z,85.88
2023-02-27T21:39:35.034Z,86.21
2023-02-27T21:42:22.862Z,86.33
2023-02-27T21:45:13.122Z,89.10
2023-02-27T21:48:00.417Z,87.06
2023-02-27T21:50:49.041Z,87.32
2023-02-27T21:53:37.137Z,87.69
2023-02-27T21:56:24.701Z,88.53
2023-02-27T21:59:12.662Z,90.46
2023-02-27T22:01:59.915Z,88.47
2023-02-27T22:04:50.162Z,91.35
2023-02-27T22:07:37.585Z,88.65
2023-02-27T22:10:24.726Z,91.11
2023-02-27T22:13:14.549Z,91.31
2023-02-27T22:16:13.178Z,91.90
2023-02-27T22:19:04.398Z,94.97
2023-02-27T22:21:51.725Z,94.39
2023-02-27T22:24:42.864Z,95.42
2023-02-27T22:27:29.971Z,94.78
2023-02-27T22:30:19.679Z,94.87
2023-02-27T22:33:06.763Z,96.22
2023-02-27T22:35:53.831Z,94.67
2023-02-27T22:38:41.419Z,95.44
2023-02-27T22:41:31.657Z,96.93
2023-02-27T22:44:20.284Z,97.55
2023-02-27T22:47:09.947Z,95.75
2023-02-27T22:49:57.136Z,95.75
2023-02-27T22:52:44.167Z,94.95
2023-02-27T22:55:31.310Z,97.67
2023-02-27T22:58:21.859Z,95.51
2023-02-27T23:01:15.264Z,94.23
2023-02-27T23:04:13.034Z,96.59
2023-02-27T23:07:00.216Z,98.34
2023-02-27T23:09:49.659Z,97.31
2023-02-27T23:12:39.990Z,98.04
2023-02-27T23:15:27.047Z,99.35
2023-02-27T23:18:14.127Z,99.87
2023-02-27T23:21:04.040Z,100.00
2023-02-27T23:23:53.987Z,100.00
2023-02-27T23:26:46.565Z,100.00
2023-02-27T23:29:35.732Z,99.20
2023-02-27T23:32:22.966Z,98.99
2023-02-27T23:35:12.427Z,99.98
2023-02-27T23:38:00.740Z,100.00
2023-02-27T23:40:47.905Z,100.00
2023-02-27T23:43:38.156Z,100.00
2023-02-27T23:46:29.096Z,100.00
2023-02-27T23:49:16.223Z,100.00
2023-02-27T23:52:03.437Z,100.00
2023-02-27T23:54:50.501Z,100.00
2023-02-27T23:57:42.125Z,100.00
